ペトロパブロフスク・カムチャツキー の空港の天気 - METARとTAF

ペトロパブロフスク・カムチャツキー空港 ( UHPP / PKC ) - ロシア ペトロパブロフスク・カムチャツキー
飛行場実況気象(Metar)
観測時間01/21 04:00 +11 (01/20 17:00 UTC)
風向・風速不定 1m/s
視程10km以上
天気現象
全天の4割程度の雲 雲底高度 1220m
気温-15℃
湿度72%
気圧1015hPa
METARUHPP 201700Z VRB01MPS 9999 SCT040 M15/M19 Q1015 R34L/710260 NOSIG RMK QFE758/1011
過去の天気等 Google飛行場航空写真 Wunderground天気予報

過去48時間のMETAR

飛行場予報(TAF)
発表時間: 1/21 03:51 +11 (1/20 16:51 UTC)
予報対象時間: 21日5時 +11 ~ 22日11時 +11
風向・風速北 3m/s 瞬間風速 12m/s
視程10km以上
全天の8割程度の積乱雲 雲底高度 910m
21日5時 +11 ~ 21日8時 +11 に一時的に
天気現象弱いしゅう雪
21日8時 +11 から
風向・風速北北東 3m/s 瞬間風速 12m/s
視程10km以上
全天の8割程度の積乱雲 雲底高度 910m
全天を覆う雲 雲底高度 1,520m
TAF UHPP 201651Z 2018/2124 35003G12MPS 9999 BKN030CB
TEMPO 2018/2021 -SHSN
FM202100 02003G12MPS 9999 BKN030CB OVC050